sensor_id;sensor_type;location;lat;lon;timestamp;temperature;humidity
22185;DHT22;11258;52.516;13.318;2023-11-21T00:02:13;8.90;99.90
22185;DHT22;11258;52.516;13.318;2023-11-21T00:04:39;8.90;99.90
22185;DHT22;11258;52.516;13.318;2023-11-21T00:07:05;8.90;99.90
22185;DHT22;11258;52.516;13.318;2023-11-21T00:09:32;8.80;99.90
22185;DHT22;11258;52.516;13.318;2023-11-21T00:11:57;8.70;99.90
22185;DHT22;11258;52.516;13.318;2023-11-21T00:14:24;8.70;99.90
22185;DHT22;11258;52.516;13.318;2023-11-21T00:16:50;8.70;99.90
22185;DHT22;11258;52.516;13.318;2023-11-21T00:19:16;8.70;99.90
22185;DHT22;11258;52.516;13.318;2023-11-21T00:21:42;8.50;99.90
22185;DHT22;11258;52.516;13.318;2023-11-21T00:24:10;8.60;99.90
22185;DHT22;11258;52.516;13.318;2023-11-21T00:26:35;8.40;99.90
22185;DHT22;11258;52.516;13.318;2023-11-21T00:29:03;8.30;99.90
22185;DHT22;11258;52.516;13.318;2023-11-21T00:31:29;8.40;99.90
22185;DHT22;11258;52.516;13.318;2023-11-21T00:33:56;8.50;99.90
22185;DHT22;11258;52.516;13.318;2023-11-21T00:36:21;8.30;99.90
22185;DHT22;11258;52.516;13.318;2023-11-21T00:38:47;8.20;99.90
22185;DHT22;11258;52.516;13.318;2023-11-21T00:41:14;8.20;99.90
22185;DHT22;11258;52.516;13.318;2023-11-21T00:43:39;8.20;99.90
22185;DHT22;11258;52.516;13.318;2023-11-21T00:46:05;8.00;99.90
22185;DHT22;11258;52.516;13.318;2023-11-21T00:48:34;8.20;99.90
22185;DHT22;11258;52.516;13.318;2023-11-21T00:51:00;8.10;99.90
22185;DHT22;11258;52.516;13.318;2023-11-21T00:53:26;7.90;99.90
22185;DHT22;11258;52.516;13.318;2023-11-21T00:55:52;7.90;99.90
22185;DHT22;11258;52.516;13.318;2023-11-21T00:58:23;7.80;99.90
22185;DHT22;11258;52.516;13.318;2023-11-21T01:00:48;7.90;99.90
22185;DHT22;11258;52.516;13.318;2023-11-21T01:03:14;7.80;99.90
22185;DHT22;11258;52.516;13.318;2023-11-21T01:05:40;7.80;99.90
22185;DHT22;11258;52.516;13.318;2023-11-21T01:08:05;7.70;99.90
22185;DHT22;11258;52.516;13.318;2023-11-21T01:10:31;7.60;99.90
22185;DHT22;11258;52.516;13.318;2023-11-21T01:12:57;7.70;99.90
22185;DHT22;11258;52.516;13.318;2023-11-21T01:15:23;7.70;99.90
22185;DHT22;11258;52.516;13.318;2023-11-21T01:17:51;7.70;99.90
22185;DHT22;11258;52.516;13.318;2023-11-21T01:20:17;7.60;99.90
22185;DHT22;11258;52.516;13.318;2023-11-21T01:22:43;7.70;99.90
22185;DHT22;11258;52.516;13.318;2023-11-21T01:25:09;7.70;99.90
22185;DHT22;11258;52.516;13.318;2023-11-21T01:27:36;7.90;99.90
22185;DHT22;11258;52.516;13.318;2023-11-21T01:30:03;7.90;99.90
22185;DHT22;11258;52.516;13.318;2023-11-21T01:32:29;8.00;99.90
22185;DHT22;11258;52.516;13.318;2023-11-21T01:34:54;7.90;99.90
22185;DHT22;11258;52.516;13.318;2023-11-21T01:37:23;8.00;99.90
22185;DHT22;11258;52.516;13.318;2023-11-21T01:39:48;7.90;99.90
22185;DHT22;11258;52.516;13.318;2023-11-21T01:42:14;7.70;99.90
22185;DHT22;11258;52.516;13.318;2023-11-21T01:44:40;7.80;99.90
22185;DHT22;11258;52.516;13.318;2023-11-21T01:47:06;7.70;99.90
22185;DHT22;11258;52.516;13.318;2023-11-21T01:49:33;7.60;99.90
22185;DHT22;11258;52.516;13.318;2023-11-21T01:52:00;7.60;99.90
22185;DHT22;11258;52.516;13.318;2023-11-21T01:54:27;7.70;99.90
22185;DHT22;11258;52.516;13.318;2023-11-21T01:56:54;7.70;99.90
22185;DHT22;11258;52.516;13.318;2023-11-21T01:59:21;7.50;99.90
22185;DHT22;11258;52.516;13.318;2023-11-21T02:01:47;7.40;99.90
22185;DHT22;11258;52.516;13.318;2023-11-21T02:04:13;7.40;99.90
22185;DHT22;11258;52.516;13.318;2023-11-21T02:06:39;7.40;99.90
22185;DHT22;11258;52.516;13.318;2023-11-21T02:09:05;7.40;99.90
22185;DHT22;11258;52.516;13.318;2023-11-21T02:11:31;7.50;99.90
22185;DHT22;11258;52.516;13.318;2023-11-21T02:13:59;7.40;99.90
22185;DHT22;11258;52.516;13.318;2023-11-21T02:16:26;7.50;99.90
22185;DHT22;11258;52.516;13.318;2023-11-21T02:18:53;7.50;99.90
22185;DHT22;11258;52.516;13.318;2023-11-21T02:21:18;7.60;99.90
22185;DHT22;11258;52.516;13.318;2023-11-21T02:23:47;7.50;99.90
22185;DHT22;11258;52.516;13.318;2023-11-21T02:26:13;7.60;99.90
22185;DHT22;11258;52.516;13.318;2023-11-21T02:28:39;7.60;99.90
22185;DHT22;11258;52.516;13.318;2023-11-21T02:31:05;7.60;99.90
22185;DHT22;11258;52.516;13.318;2023-11-21T02:33:33;7.50;99.90
22185;DHT22;11258;52.516;13.318;2023-11-21T02:36:00;7.70;99.90
22185;DHT22;11258;52.516;13.318;2023-11-21T02:38:25;7.60;99.90
22185;DHT22;11258;52.516;13.318;2023-11-21T02:40:51;7.40;99.90
22185;DHT22;11258;52.516;13.318;2023-11-21T02:43:17;7.50;99.90
22185;DHT22;11258;52.516;13.318;2023-11-21T02:45:42;7.50;99.90
22185;DHT22;11258;52.516;13.318;2023-11-21T02:48:08;7.50;99.90
22185;DHT22;11258;52.516;13.318;2023-11-21T02:50:34;7.50;99.90
22185;DHT22;11258;52.516;13.318;2023-11-21T02:53:00;7.40;99.90
22185;DHT22;11258;52.516;13.318;2023-11-21T02:55:27;7.20;99.90
22185;DHT22;11258;52.516;13.318;2023-11-21T02:57:53;7.20;99.90
22185;DHT22;11258;52.516;13.318;2023-11-21T03:00:19;7.30;99.90
22185;DHT22;11258;52.516;13.318;2023-11-21T03:02:45;7.30;99.90
22185;DHT22;11258;52.516;13.318;2023-11-21T03:05:13;7.50;99.90
22185;DHT22;11258;52.516;13.318;2023-11-21T03:07:39;7.50;99.90
22185;DHT22;11258;52.516;13.318;2023-11-21T03:10:06;7.50;99.90
22185;DHT22;11258;52.516;13.318;2023-11-21T03:12:32;7.40;99.90
22185;DHT22;11258;52.516;13.318;2023-11-21T03:14:58;7.40;99.90
22185;DHT22;11258;52.516;13.318;2023-11-21T03:17:23;7.10;99.90
22185;DHT22;11258;52.516;13.318;2023-11-21T03:19:49;7.10;99.90
22185;DHT22;11258;52.516;13.318;2023-11-21T03:22:15;7.20;99.90
22185;DHT22;11258;52.516;13.318;2023-11-21T03:24:41;7.10;99.90
22185;DHT22;11258;52.516;13.318;2023-11-21T03:27:06;7.10;99.90
22185;DHT22;11258;52.516;13.318;2023-11-21T03:29:33;7.30;99.90
22185;DHT22;11258;52.516;13.318;2023-11-21T03:31:58;7.30;99.90
22185;DHT22;11258;52.516;13.318;2023-11-21T03:34:26;7.30;99.90
22185;DHT22;11258;52.516;13.318;2023-11-21T03:36:51;7.20;99.90
22185;DHT22;11258;52.516;13.318;2023-11-21T03:39:19;7.30;99.90
22185;DHT22;11258;52.516;13.318;2023-11-21T03:41:45;7.40;99.90
22185;DHT22;11258;52.516;13.318;2023-11-21T03:44:10;7.30;99.90
22185;DHT22;11258;52.516;13.318;2023-11-21T03:46:36;7.30;99.90
22185;DHT22;11258;52.516;13.318;2023-11-21T03:49:01;7.20;99.90
22185;DHT22;11258;52.516;13.318;2023-11-21T03:51:27;7.20;99.90
22185;DHT22;11258;52.516;13.318;2023-11-21T03:53:53;7.30;99.90
22185;DHT22;11258;52.516;13.318;2023-11-21T03:56:19;7.10;99.90
22185;DHT22;11258;52.516;13.318;2023-11-21T03:58:47;7.20;99.90
22185;DHT22;11258;52.516;13.318;2023-11-21T04:01:22;7.20;99.90
22185;DHT22;11258;52.516;13.318;2023-11-21T04:03:49;7.10;99.90
22185;DHT22;11258;52.516;13.318;2023-11-21T04:06:14;7.10;99.90
22185;DHT22;11258;52.516;13.318;2023-11-21T04:08:40;7.20;99.90
22185;DHT22;11258;52.516;13.318;2023-11-21T04:11:05;6.90;99.90
22185;DHT22;11258;52.516;13.318;2023-11-21T04:13:31;6.70;99.90
22185;DHT22;11258;52.516;13.318;2023-11-21T04:15:57;6.90;99.90
22185;DHT22;11258;52.516;13.318;2023-11-21T04:18:22;6.80;99.90
22185;DHT22;11258;52.516;13.318;2023-11-21T04:20:50;6.90;99.90
22185;DHT22;11258;52.516;13.318;2023-11-21T04:23:16;7.00;99.90
22185;DHT22;11258;52.516;13.318;2023-11-21T04:25:42;7.00;99.90
22185;DHT22;11258;52.516;13.318;2023-11-21T04:28:08;7.10;99.90
22185;DHT22;11258;52.516;13.318;2023-11-21T04:30:33;6.90;99.90
22185;DHT22;11258;52.516;13.318;2023-11-21T04:32:59;6.90;99.90
22185;DHT22;11258;52.516;13.318;2023-11-21T04:35:25;6.80;99.90
22185;DHT22;11258;52.516;13.318;2023-11-21T04:37:50;6.90;99.90
22185;DHT22;11258;52.516;13.318;2023-11-21T04:40:16;6.90;99.90
22185;DHT22;11258;52.516;13.318;2023-11-21T04:42:42;7.10;99.90
22185;DHT22;11258;52.516;13.318;2023-11-21T04:45:08;7.10;99.90
22185;DHT22;11258;52.516;13.318;2023-11-21T04:47:35;7.10;99.90
22185;DHT22;11258;52.516;13.318;2023-11-21T04:50:02;7.00;99.90
22185;DHT22;11258;52.516;13.318;2023-11-21T04:52:28;7.00;99.90
22185;DHT22;11258;52.516;13.318;2023-11-21T04:54:54;7.00;99.90
22185;DHT22;11258;52.516;13.318;2023-11-21T04:57:20;7.00;99.90
22185;DHT22;11258;52.516;13.318;2023-11-21T04:59:48;7.10;99.90
22185;DHT22;11258;52.516;13.318;2023-11-21T05:02:14;7.10;99.90
22185;DHT22;11258;52.516;13.318;2023-11-21T05:04:39;7.00;99.90
22185;DHT22;11258;52.516;13.318;2023-11-21T05:07:05;7.00;99.90
22185;DHT22;11258;52.516;13.318;2023-11-21T05:09:31;6.90;99.90
22185;DHT22;11258;52.516;13.318;2023-11-21T05:11:58;7.00;99.90
22185;DHT22;11258;52.516;13.318;2023-11-21T05:14:23;7.00;99.90
22185;DHT22;11258;52.516;13.318;2023-11-21T05:16:49;7.00;99.90
22185;DHT22;11258;52.516;13.318;2023-11-21T05:19:16;6.90;99.90
22185;DHT22;11258;52.516;13.318;2023-11-21T05:21:42;6.80;99.90
22185;DHT22;11258;52.516;13.318;2023-11-21T05:24:07;6.80;99.90
22185;DHT22;11258;52.516;13.318;2023-11-21T05:26:33;6.80;99.90
22185;DHT22;11258;52.516;13.318;2023-11-21T05:28:59;6.80;99.90
22185;DHT22;11258;52.516;13.318;2023-11-21T05:31:24;6.80;99.90
22185;DHT22;11258;52.516;13.318;2023-11-21T05:33:50;6.80;99.90
22185;DHT22;11258;52.516;13.318;2023-11-21T05:36:16;6.80;99.90
22185;DHT22;11258;52.516;13.318;2023-11-21T05:38:41;6.80;99.90
22185;DHT22;11258;52.516;13.318;2023-11-21T05:41:07;6.60;99.90
22185;DHT22;11258;52.516;13.318;2023-11-21T05:43:36;6.70;99.90
22185;DHT22;11258;52.516;13.318;2023-11-21T05:46:02;6.70;99.90
22185;DHT22;11258;52.516;13.318;2023-11-21T05:48:27;6.50;99.90
22185;DHT22;11258;52.516;13.318;2023-11-21T05:50:53;6.60;99.90
22185;DHT22;11258;52.516;13.318;2023-11-21T05:53:19;6.70;99.90
22185;DHT22;11258;52.516;13.318;2023-11-21T05:55:44;6.60;99.90
22185;DHT22;11258;52.516;13.318;2023-11-21T05:58:10;6.60;99.90
22185;DHT22;11258;52.516;13.318;2023-11-21T06:00:36;6.60;99.90
22185;DHT22;11258;52.516;13.318;2023-11-21T06:03:02;6.50;99.90
22185;DHT22;11258;52.516;13.318;2023-11-21T06:05:28;6.50;99.90
22185;DHT22;11258;52.516;13.318;2023-11-21T06:07:56;6.60;99.90
22185;DHT22;11258;52.516;13.318;2023-11-21T06:10:24;6.60;99.90
22185;DHT22;11258;52.516;13.318;2023-11-21T06:12:50;6.40;99.90
22185;DHT22;11258;52.516;13.318;2023-11-21T06:15:16;6.50;99.90
22185;DHT22;11258;52.516;13.318;2023-11-21T06:17:44;6.50;99.90
22185;DHT22;11258;52.516;13.318;2023-11-21T06:20:15;6.50;99.90
22185;DHT22;11258;52.516;13.318;2023-11-21T06:22:45;6.40;99.90
22185;DHT22;11258;52.516;13.318;2023-11-21T06:25:12;6.50;99.90
22185;DHT22;11258;52.516;13.318;2023-11-21T06:27:46;6.40;99.90
22185;DHT22;11258;52.516;13.318;2023-11-21T06:30:13;6.40;99.90
22185;DHT22;11258;52.516;13.318;2023-11-21T06:32:39;6.50;99.90
22185;DHT22;11258;52.516;13.318;2023-11-21T06:35:06;6.50;99.90
22185;DHT22;11258;52.516;13.318;2023-11-21T06:37:33;6.50;99.90
22185;DHT22;11258;52.516;13.318;2023-11-21T06:40:00;6.50;99.90
22185;DHT22;11258;52.516;13.318;2023-11-21T06:42:26;6.40;99.90
22185;DHT22;11258;52.516;13.318;2023-11-21T06:44:52;6.50;99.90
22185;DHT22;11258;52.516;13.318;2023-11-21T06:47:19;6.50;99.90
22185;DHT22;11258;52.516;13.318;2023-11-21T06:49:50;6.50;99.90
22185;DHT22;11258;52.516;13.318;2023-11-21T06:52:16;6.60;99.90
22185;DHT22;11258;52.516;13.318;2023-11-21T06:54:42;6.50;99.90
22185;DHT22;11258;52.516;13.318;2023-11-21T06:57:07;6.50;99.90
22185;DHT22;11258;52.516;13.318;2023-11-21T06:59:33;6.40;99.90
22185;DHT22;11258;52.516;13.318;2023-11-21T07:01:59;6.50;99.90
22185;DHT22;11258;52.516;13.318;2023-11-21T07:04:25;6.40;99.90
22185;DHT22;11258;52.516;13.318;2023-11-21T07:06:51;6.40;99.90
22185;DHT22;11258;52.516;13.318;2023-11-21T07:09:17;6.40;99.90
22185;DHT22;11258;52.516;13.318;2023-11-21T07:11:42;6.30;99.90
22185;DHT22;11258;52.516;13.318;2023-11-21T07:14:08;6.30;99.90
22185;DHT22;11258;52.516;13.318;2023-11-21T07:16:37;6.30;99.90
22185;DHT22;11258;52.516;13.318;2023-11-21T07:19:06;6.30;99.90
22185;DHT22;11258;52.516;13.318;2023-11-21T07:21:33;6.30;99.90
22185;DHT22;11258;52.516;13.318;2023-11-21T07:24:00;6.30;99.90
22185;DHT22;11258;52.516;13.318;2023-11-21T07:26:27;6.40;99.90
22185;DHT22;11258;52.516;13.318;2023-11-21T07:28:53;6.30;99.90
22185;DHT22;11258;52.516;13.318;2023-11-21T07:31:18;6.40;99.90
22185;DHT22;11258;52.516;13.318;2023-11-21T07:33:47;6.50;99.90
22185;DHT22;11258;52.516;13.318;2023-11-21T07:36:14;6.40;99.90
22185;DHT22;11258;52.516;13.318;2023-11-21T07:38:40;6.40;99.90
22185;DHT22;11258;52.516;13.318;2023-11-21T07:41:05;6.30;99.90
22185;DHT22;11258;52.516;13.318;2023-11-21T07:43:36;6.20;99.90
22185;DHT22;11258;52.516;13.318;2023-11-21T07:46:02;6.30;99.90
22185;DHT22;11258;52.516;13.318;2023-11-21T07:48:32;6.30;99.90
22185;DHT22;11258;52.516;13.318;2023-11-21T07:50:58;6.40;99.90
22185;DHT22;11258;52.516;13.318;2023-11-21T07:53:25;6.40;99.90
22185;DHT22;11258;52.516;13.318;2023-11-21T07:55:51;6.30;99.90
22185;DHT22;11258;52.516;13.318;2023-11-21T07:58:17;6.20;99.90
22185;DHT22;11258;52.516;13.318;2023-11-21T08:00:44;6.30;99.90
22185;DHT22;11258;52.516;13.318;2023-11-21T08:03:09;6.20;99.90
22185;DHT22;11258;52.516;13.318;2023-11-21T08:05:36;6.30;99.90
22185;DHT22;11258;52.516;13.318;2023-11-21T08:08:02;6.40;99.90
22185;DHT22;11258;52.516;13.318;2023-11-21T08:10:28;6.40;99.90
22185;DHT22;11258;52.516;13.318;2023-11-21T08:12:53;6.50;99.90
22185;DHT22;11258;52.516;13.318;2023-11-21T08:15:19;6.50;99.90
22185;DHT22;11258;52.516;13.318;2023-11-21T08:17:46;6.50;99.90
22185;DHT22;11258;52.516;13.318;2023-11-21T08:20:12;6.40;99.90
22185;DHT22;11258;52.516;13.318;2023-11-21T08:22:37;6.30;99.90
22185;DHT22;11258;52.516;13.318;2023-11-21T08:25:06;6.30;99.90
22185;DHT22;11258;52.516;13.318;2023-11-21T08:27:33;6.30;99.90
22185;DHT22;11258;52.516;13.318;2023-11-21T08:30:00;6.20;99.90
22185;DHT22;11258;52.516;13.318;2023-11-21T08:32:26;6.20;99.90
22185;DHT22;11258;52.516;13.318;2023-11-21T08:34:52;6.20;99.90
22185;DHT22;11258;52.516;13.318;2023-11-21T08:37:17;6.20;99.90
22185;DHT22;11258;52.516;13.318;2023-11-21T08:39:44;6.10;99.90
22185;DHT22;11258;52.516;13.318;2023-11-21T08:42:10;6.20;99.90
22185;DHT22;11258;52.516;13.318;2023-11-21T08:44:35;6.30;99.90
22185;DHT22;11258;52.516;13.318;2023-11-21T08:47:01;6.10;99.90
22185;DHT22;11258;52.516;13.318;2023-11-21T08:49:27;6.10;99.90
22185;DHT22;11258;52.516;13.318;2023-11-21T08:51:54;5.90;99.90
22185;DHT22;11258;52.516;13.318;2023-11-21T08:54:25;5.80;99.90
22185;DHT22;11258;52.516;13.318;2023-11-21T08:56:52;6.00;99.90
22185;DHT22;11258;52.516;13.318;2023-11-21T08:59:17;6.00;99.90
22185;DHT22;11258;52.516;13.318;2023-11-21T09:01:43;6.10;99.90
22185;DHT22;11258;52.516;13.318;2023-11-21T09:04:08;6.10;99.90
22185;DHT22;11258;52.516;13.318;2023-11-21T09:06:34;6.20;99.90
22185;DHT22;11258;52.516;13.318;2023-11-21T09:09:00;6.20;99.90
22185;DHT22;11258;52.516;13.318;2023-11-21T09:11:26;6.10;99.90
22185;DHT22;11258;52.516;13.318;2023-11-21T09:13:56;6.00;99.90
22185;DHT22;11258;52.516;13.318;2023-11-21T09:16:23;5.90;99.90
22185;DHT22;11258;52.516;13.318;2023-11-21T09:18:48;6.10;99.90
22185;DHT22;11258;52.516;13.318;2023-11-21T09:21:14;6.20;99.90
22185;DHT22;11258;52.516;13.318;2023-11-21T09:23:40;6.20;99.90
22185;DHT22;11258;52.516;13.318;2023-11-21T09:26:06;6.20;99.90
22185;DHT22;11258;52.516;13.318;2023-11-21T09:28:32;6.20;99.90
22185;DHT22;11258;52.516;13.318;2023-11-21T09:30:57;6.30;99.90
22185;DHT22;11258;52.516;13.318;2023-11-21T09:33:23;6.30;99.90
22185;DHT22;11258;52.516;13.318;2023-11-21T09:35:50;6.30;99.90
22185;DHT22;11258;52.516;13.318;2023-11-21T09:38:16;6.40;99.90
22185;DHT22;11258;52.516;13.318;2023-11-21T09:40:42;6.40;99.90
22185;DHT22;11258;52.516;13.318;2023-11-21T09:43:16;6.50;99.90
22185;DHT22;11258;52.516;13.318;2023-11-21T09:45:45;6.40;99.90
22185;DHT22;11258;52.516;13.318;2023-11-21T09:48:13;6.30;99.90
22185;DHT22;11258;52.516;13.318;2023-11-21T09:50:42;6.30;99.90
22185;DHT22;11258;52.516;13.318;2023-11-21T09:53:18;6.30;99.90
22185;DHT22;11258;52.516;13.318;2023-11-21T09:55:53;6.30;99.90
22185;DHT22;11258;52.516;13.318;2023-11-21T09:58:20;6.20;99.90
22185;DHT22;11258;52.516;13.318;2023-11-21T10:00:48;5.90;99.90
22185;DHT22;11258;52.516;13.318;2023-11-21T10:03:15;6.10;99.90
22185;DHT22;11258;52.516;13.318;2023-11-21T10:05:42;5.90;99.90
22185;DHT22;11258;52.516;13.318;2023-11-21T10:08:10;6.00;99.90
22185;DHT22;11258;52.516;13.318;2023-11-21T10:10:44;6.00;99.90
22185;DHT22;11258;52.516;13.318;2023-11-21T10:13:12;6.00;99.90
22185;DHT22;11258;52.516;13.318;2023-11-21T10:15:42;5.90;99.90
22185;DHT22;11258;52.516;13.318;2023-11-21T10:18:14;5.70;99.90
22185;DHT22;11258;52.516;13.318;2023-11-21T10:20:41;5.80;99.90
22185;DHT22;11258;52.516;13.318;2023-11-21T10:23:07;5.70;99.90
22185;DHT22;11258;52.516;13.318;2023-11-21T10:25:37;5.70;99.90
22185;DHT22;11258;52.516;13.318;2023-11-21T10:28:04;5.50;99.90
22185;DHT22;11258;52.516;13.318;2023-11-21T10:30:36;5.60;99.90
22185;DHT22;11258;52.516;13.318;2023-11-21T10:33:06;5.60;99.90
22185;DHT22;11258;52.516;13.318;2023-11-21T10:35:46;5.60;99.90
22185;DHT22;11258;52.516;13.318;2023-11-21T10:38:13;5.60;99.90
22185;DHT22;11258;52.516;13.318;2023-11-21T10:40:40;5.70;99.90
22185;DHT22;11258;52.516;13.318;2023-11-21T10:43:08;5.80;99.90
22185;DHT22;11258;52.516;13.318;2023-11-21T10:45:38;5.80;99.90
22185;DHT22;11258;52.516;13.318;2023-11-21T10:48:13;5.70;99.90
22185;DHT22;11258;52.516;13.318;2023-11-21T10:50:43;5.50;99.90
22185;DHT22;11258;52.516;13.318;2023-11-21T10:53:09;5.50;99.90
22185;DHT22;11258;52.516;13.318;2023-11-21T10:55:37;5.50;99.90
22185;DHT22;11258;52.516;13.318;2023-11-21T10:58:03;5.50;99.90
22185;DHT22;11258;52.516;13.318;2023-11-21T11:00:32;5.60;99.90
22185;DHT22;11258;52.516;13.318;2023-11-21T11:02:58;5.80;99.90
22185;DHT22;11258;52.516;13.318;2023-11-21T11:05:26;5.90;99.90
22185;DHT22;11258;52.516;13.318;2023-11-21T11:08:05;5.90;99.90
22185;DHT22;11258;52.516;13.318;2023-11-21T11:10:31;5.90;99.90
22185;DHT22;11258;52.516;13.318;2023-11-21T11:12:58;5.90;99.90
22185;DHT22;11258;52.516;13.318;2023-11-21T11:15:25;5.70;99.90
22185;DHT22;11258;52.516;13.318;2023-11-21T11:17:51;5.70;99.90
22185;DHT22;11258;52.516;13.318;2023-11-21T11:20:17;5.80;99.90
22185;DHT22;11258;52.516;13.318;2023-11-21T11:26:24;5.20;99.90
22185;DHT22;11258;52.516;13.318;2023-11-21T11:29:03;5.00;99.90
22185;DHT22;11258;52.516;13.318;2023-11-21T11:32:36;5.00;99.90
22185;DHT22;11258;52.516;13.318;2023-11-21T11:34:41;5.00;99.90
22185;DHT22;11258;52.516;13.318;2023-11-21T11:37:09;5.00;99.90
22185;DHT22;11258;52.516;13.318;2023-11-21T11:39:40;5.00;99.90
22185;DHT22;11258;52.516;13.318;2023-11-21T11:42:16;5.20;99.90
22185;DHT22;11258;52.516;13.318;2023-11-21T11:47:29;5.20;99.90
22185;DHT22;11258;52.516;13.318;2023-11-21T11:52:40;5.20;99.90
22185;DHT22;11258;52.516;13.318;2023-11-21T11:55:11;5.20;99.90
22185;DHT22;11258;52.516;13.318;2023-11-21T11:57:38;5.30;99.90
22185;DHT22;11258;52.516;13.318;2023-11-21T12:00:21;5.10;99.90
22185;DHT22;11258;52.516;13.318;2023-11-21T12:03:02;5.20;99.90
22185;DHT22;11258;52.516;13.318;2023-11-21T12:05:32;5.30;99.90
22185;DHT22;11258;52.516;13.318;2023-11-21T12:08:00;5.40;99.90
22185;DHT22;11258;52.516;13.318;2023-11-21T12:10:28;5.40;99.90
22185;DHT22;11258;52.516;13.318;2023-11-21T12:12:59;5.50;99.90
22185;DHT22;11258;52.516;13.318;2023-11-21T12:15:26;5.50;99.90
22185;DHT22;11258;52.516;13.318;2023-11-21T12:17:54;5.50;99.90
22185;DHT22;11258;52.516;13.318;2023-11-21T12:20:24;5.60;99.90
22185;DHT22;11258;52.516;13.318;2023-11-21T12:22:51;5.40;99.90
22185;DHT22;11258;52.516;13.318;2023-11-21T12:25:19;5.40;99.90
22185;DHT22;11258;52.516;13.318;2023-11-21T12:27:55;5.40;99.90
22185;DHT22;11258;52.516;13.318;2023-11-21T12:30:23;5.50;99.90
22185;DHT22;11258;52.516;13.318;2023-11-21T12:32:52;5.50;99.90
22185;DHT22;11258;52.516;13.318;2023-11-21T12:35:19;5.40;99.90
22185;DHT22;11258;52.516;13.318;2023-11-21T12:37:47;5.40;99.90
22185;DHT22;11258;52.516;13.318;2023-11-21T12:40:13;5.30;99.90
22185;DHT22;11258;52.516;13.318;2023-11-21T12:42:52;5.40;99.90
22185;DHT22;11258;52.516;13.318;2023-11-21T12:45:22;5.40;99.90
22185;DHT22;11258;52.516;13.318;2023-11-21T12:47:52;5.50;99.90
22185;DHT22;11258;52.516;13.318;2023-11-21T12:50:24;5.30;99.90
22185;DHT22;11258;52.516;13.318;2023-11-21T12:52:57;5.50;99.90
22185;DHT22;11258;52.516;13.318;2023-11-21T12:55:24;5.50;99.90
22185;DHT22;11258;52.516;13.318;2023-11-21T12:57:52;5.80;99.90
22185;DHT22;11258;52.516;13.318;2023-11-21T13:00:28;5.80;99.90
22185;DHT22;11258;52.516;13.318;2023-11-21T13:02:56;5.80;99.90
22185;DHT22;11258;52.516;13.318;2023-11-21T13:05:28;5.80;99.90
22185;DHT22;11258;52.516;13.318;2023-11-21T13:07:56;5.90;99.90
22185;DHT22;11258;52.516;13.318;2023-11-21T13:10:26;5.60;99.90
22185;DHT22;11258;52.516;13.318;2023-11-21T13:13:00;5.60;99.90
22185;DHT22;11258;52.516;13.318;2023-11-21T13:15:29;5.40;99.90
22185;DHT22;11258;52.516;13.318;2023-11-21T13:17:57;5.40;99.90
22185;DHT22;11258;52.516;13.318;2023-11-21T13:20:24;5.30;99.90
22185;DHT22;11258;52.516;13.318;2023-11-21T13:22:54;5.30;99.90
22185;DHT22;11258;52.516;13.318;2023-11-21T13:25:25;5.30;99.90
22185;DHT22;11258;52.516;13.318;2023-11-21T13:27:58;5.20;99.90
22185;DHT22;11258;52.516;13.318;2023-11-21T13:30:27;5.20;99.90
22185;DHT22;11258;52.516;13.318;2023-11-21T13:32:59;5.10;99.90
22185;DHT22;11258;52.516;13.318;2023-11-21T13:35:39;5.30;99.90
22185;DHT22;11258;52.516;13.318;2023-11-21T13:38:10;5.20;99.90
22185;DHT22;11258;52.516;13.318;2023-11-21T13:40:37;5.20;99.90
22185;DHT22;11258;52.516;13.318;2023-11-21T13:43:09;5.10;99.90
22185;DHT22;11258;52.516;13.318;2023-11-21T13:45:39;5.20;99.90
22185;DHT22;11258;52.516;13.318;2023-11-21T13:48:06;5.20;99.90
22185;DHT22;11258;52.516;13.318;2023-11-21T13:50:36;5.30;99.90
22185;DHT22;11258;52.516;13.318;2023-11-21T13:53:03;5.40;99.90
22185;DHT22;11258;52.516;13.318;2023-11-21T13:55:44;5.10;99.90
22185;DHT22;11258;52.516;13.318;2023-11-21T13:58:10;5.20;99.90
22185;DHT22;11258;52.516;13.318;2023-11-21T14:00:42;5.30;99.90
22185;DHT22;11258;52.516;13.318;2023-11-21T14:03:14;5.20;99.90
22185;DHT22;11258;52.516;13.318;2023-11-21T14:05:58;5.00;99.90
22185;DHT22;11258;52.516;13.318;2023-11-21T14:08:25;5.00;99.90
22185;DHT22;11258;52.516;13.318;2023-11-21T14:10:54;5.00;99.90
22185;DHT22;11258;52.516;13.318;2023-11-21T14:13:25;5.00;99.90
22185;DHT22;11258;52.516;13.318;2023-11-21T14:15:51;5.00;99.90
22185;DHT22;11258;52.516;13.318;2023-11-21T14:18:24;4.90;99.90
22185;DHT22;11258;52.516;13.318;2023-11-21T14:21:01;4.90;99.90
22185;DHT22;11258;52.516;13.318;2023-11-21T14:23:27;4.70;99.90
22185;DHT22;11258;52.516;13.318;2023-11-21T14:25:54;4.70;99.90
22185;DHT22;11258;52.516;13.318;2023-11-21T14:28:20;4.90;99.90
22185;DHT22;11258;52.516;13.318;2023-11-21T14:30:46;4.80;99.90
22185;DHT22;11258;52.516;13.318;2023-11-21T14:33:12;4.80;99.90
22185;DHT22;11258;52.516;13.318;2023-11-21T14:35:38;4.50;99.90
22185;DHT22;11258;52.516;13.318;2023-11-21T14:38:04;4.60;99.90
22185;DHT22;11258;52.516;13.318;2023-11-21T14:40:33;4.50;99.90
22185;DHT22;11258;52.516;13.318;2023-11-21T14:43:04;4.20;99.90
22185;DHT22;11258;52.516;13.318;2023-11-21T14:45:33;4.20;99.90
22185;DHT22;11258;52.516;13.318;2023-11-21T14:47:59;4.30;99.90
22185;DHT22;11258;52.516;13.318;2023-11-21T14:50:35;4.20;99.90
22185;DHT22;11258;52.516;13.318;2023-11-21T14:53:13;4.20;99.90
22185;DHT22;11258;52.516;13.318;2023-11-21T14:55:39;4.20;99.90
22185;DHT22;11258;52.516;13.318;2023-11-21T14:58:11;4.30;99.90
22185;DHT22;11258;52.516;13.318;2023-11-21T15:00:41;4.20;99.90
22185;DHT22;11258;52.516;13.318;2023-11-21T15:03:10;4.40;99.90
22185;DHT22;11258;52.516;13.318;2023-11-21T15:05:37;4.30;99.90
22185;DHT22;11258;52.516;13.318;2023-11-21T15:08:05;4.20;99.90
22185;DHT22;11258;52.516;13.318;2023-11-21T15:10:44;4.10;99.90
22185;DHT22;11258;52.516;13.318;2023-11-21T15:13:14;4.20;99.90
22185;DHT22;11258;52.516;13.318;2023-11-21T15:15:42;4.10;99.90
22185;DHT22;11258;52.516;13.318;2023-11-21T15:18:07;4.10;99.90
22185;DHT22;11258;52.516;13.318;2023-11-21T15:20:37;4.10;99.90
22185;DHT22;11258;52.516;13.318;2023-11-21T15:23:03;4.10;99.90
22185;DHT22;11258;52.516;13.318;2023-11-21T15:25:31;4.00;99.90
22185;DHT22;11258;52.516;13.318;2023-11-21T15:27:57;4.00;99.90
22185;DHT22;11258;52.516;13.318;2023-11-21T15:30:22;3.70;99.90
22185;DHT22;11258;52.516;13.318;2023-11-21T15:32:51;3.70;99.90
22185;DHT22;11258;52.516;13.318;2023-11-21T15:35:18;3.60;99.90
22185;DHT22;11258;52.516;13.318;2023-11-21T15:37:44;3.80;99.90
22185;DHT22;11258;52.516;13.318;2023-11-21T15:40:11;4.00;99.90
22185;DHT22;11258;52.516;13.318;2023-11-21T15:42:38;4.00;99.90